createdAt,value
2019-04-27T16:42:26.302Z,100
2019-04-27T16:43:30.239Z,104
2019-04-27T16:44:28.437Z,100
2019-04-27T16:45:29.007Z,96
2019-04-27T16:46:29.578Z,92
2019-04-27T16:47:30.159Z,84
2019-04-27T16:48:34.673Z,76
2019-04-27T16:49:32.291Z,68
2019-04-27T16:50:32.859Z,64
2019-04-27T16:51:36.866Z,56
2019-04-27T16:52:34.992Z,56
2019-04-27T16:53:38.186Z,56
2019-04-27T16:54:37.834Z,56
2019-04-27T16:55:38.845Z,60
2019-04-27T16:56:39.351Z,68
2019-04-27T16:57:40.140Z,72
2019-04-27T16:58:40.643Z,80
2019-04-27T16:59:46.307Z,88
2019-04-27T17:00:42.830Z,96
2019-04-27T17:01:46.468Z,104
2019-04-27T17:02:44.927Z,108
2019-04-27T17:03:45.498Z,116
2019-04-27T17:04:52.813Z,124
2019-04-27T17:05:48.538Z,132
2019-04-27T17:06:49.598Z,140
2019-04-27T17:07:50.143Z,152
2019-04-27T17:08:50.712Z,184
2019-04-27T17:09:51.300Z,444
2019-04-27T17:10:51.873Z,544
2019-04-27T17:11:52.443Z,612
2019-04-27T17:12:53.015Z,564
2019-04-27T17:13:53.597Z,316
2019-04-27T17:14:54.168Z,292
2019-04-27T17:15:55.129Z,300
2019-04-27T17:16:55.709Z,304
2019-04-27T17:17:56.292Z,320
2019-04-27T17:18:57.750Z,340
2019-04-27T17:19:58.428Z,376
2019-04-27T17:21:02.640Z,408
2019-04-27T17:22:00.564Z,456
2019-04-27T17:23:01.146Z,504
2019-04-27T17:24:02.845Z,544
2019-04-27T17:25:02.301Z,612
2019-04-27T17:26:13.896Z,840
2019-04-27T17:27:04.779Z,1228
2019-04-27T17:28:05.353Z,1692
2019-04-27T17:29:10.948Z,2084
2019-04-27T17:30:06.503Z,1972
2019-04-27T17:31:08.680Z,1924
2019-04-27T17:32:08.945Z,1992
2019-04-27T17:33:11.914Z,2212
2019-04-27T17:34:11.014Z,2344
2019-04-27T17:35:14.693Z,2216
2019-04-27T17:36:16.314Z,1900
2019-04-27T17:37:14.733Z,1612
2019-04-27T17:38:15.898Z,1548
2019-04-27T17:39:19.291Z,1572
2019-04-27T17:40:18.450Z,1628
2019-04-27T17:41:19.023Z,1760
2019-04-27T17:42:22.831Z,1940
2019-04-27T17:43:21.162Z,2076
2019-04-27T17:44:23.164Z,2096
2019-04-27T17:45:23.306Z,2036
2019-04-27T17:46:23.876Z,1908
2019-04-27T17:47:26.636Z,1784
2019-04-27T17:48:26.027Z,1748
2019-04-27T17:49:28.117Z,1684
2019-04-27T17:50:29.787Z,1620
2019-04-27T17:51:30.813Z,1532
2019-04-27T17:52:30.318Z,1432
2019-04-27T17:53:33.117Z,624
2019-04-27T17:54:32.457Z,368
2019-04-27T17:55:33.033Z,340
2019-04-27T17:56:36.222Z,316
2019-04-27T17:57:35.192Z,284
2019-04-27T17:58:39.726Z,288
2019-04-27T17:59:37.573Z,248
2019-04-27T18:00:42.891Z,228
2019-04-27T18:01:39.456Z,208
2019-04-27T18:02:42.389Z,196
2019-04-27T18:03:41.595Z,176
2019-04-27T18:04:42.167Z,160
2019-04-27T18:05:43.784Z,148
2019-04-27T18:06:44.303Z,136
2019-04-27T18:07:44.876Z,124
2019-04-27T18:08:45.458Z,116
2019-04-27T18:09:46.031Z,108
2019-04-27T18:10:46.601Z,104
2019-04-27T18:11:49.962Z,96
2019-04-27T18:12:50.097Z,92
2019-04-27T18:13:50.301Z,84
2019-04-27T18:14:50.870Z,80
2019-04-27T18:15:54.079Z,72
2019-04-27T18:16:52.015Z,68
2019-04-27T18:17:52.596Z,64
2019-04-27T18:18:53.178Z,60
2019-04-27T18:19:53.746Z,56
2019-04-27T18:20:54.318Z,48
2019-04-27T18:21:56.803Z,44
2019-04-27T18:22:58.019Z,40
2019-04-27T18:23:58.632Z,32
2019-04-27T18:25:03.294Z,32
2019-04-27T18:25:59.180Z,32
2019-04-27T18:27:03.235Z,28
2019-04-27T18:28:00.326Z,28
2019-04-27T18:29:01.708Z,24
2019-04-27T18:30:03.330Z,24
2019-04-27T18:31:03.833Z,20
2019-04-27T18:32:04.399Z,20
2019-04-27T18:33:04.970Z,20
2019-04-27T18:34:08.567Z,16
2019-04-27T18:35:08.088Z,12
2019-04-27T18:36:13.766Z,12
2019-04-27T18:37:09.217Z,8
2019-04-27T18:38:09.786Z,8
2019-04-27T18:39:13.586Z,8
2019-04-27T18:40:10.930Z,8
2019-04-27T18:41:11.943Z,8
2019-04-27T18:42:12.088Z,4
2019-04-27T18:43:12.656Z,4
2019-04-27T18:44:13.226Z,4
2019-04-27T18:45:13.805Z,4
2019-04-27T18:46:14.799Z,0
2019-04-27T18:47:15.938Z,4
2019-04-27T18:48:16.506Z,0
2019-04-27T18:49:18.143Z,4
2019-04-27T18:50:18.653Z,4
2019-04-27T18:51:20.760Z,0
2019-04-27T18:52:20.792Z,0
2019-04-27T18:53:24.410Z,4
2019-04-27T18:54:22.938Z,4
2019-04-27T18:55:23.503Z,0
2019-04-27T18:56:24.072Z,0
2019-04-27T18:57:24.639Z,0
2019-04-27T18:58:25.207Z,0
2019-04-27T18:59:25.776Z,0
2019-04-27T19:00:27.650Z,0
2019-04-27T19:01:28.913Z,0
2019-04-27T19:02:29.466Z,0
2019-04-27T19:03:31.699Z,0
2019-04-27T19:04:31.599Z,0
2019-04-27T19:05:40.210Z,0
2019-04-27T19:06:33.728Z,0
2019-04-27T19:07:34.302Z,0
2019-04-27T19:08:34.867Z,0
2019-04-27T19:09:35.447Z,0
2019-04-27T19:10:36.034Z,0
2019-04-27T19:11:38.323Z,0
2019-04-27T19:12:39.400Z,0
2019-04-27T19:13:40.101Z,0
2019-04-27T19:14:40.738Z,0
2019-04-27T19:15:41.327Z,0
2019-04-27T19:16:41.886Z,0
2019-04-27T19:17:42.455Z,0
2019-04-27T19:18:43.049Z,0
2019-04-27T19:19:43.617Z,0
2019-04-27T19:20:44.185Z,0
2019-04-27T19:21:44.754Z,0
2019-04-27T19:22:45.321Z,0
2019-04-27T19:23:45.888Z,0
2019-04-27T19:24:46.458Z,0
2019-04-27T19:25:48.255Z,0
2019-04-27T19:26:48.418Z,0
2019-04-27T19:27:49.042Z,0
2019-04-27T19:28:49.622Z,0
2019-04-27T19:29:50.191Z,0
2019-04-27T19:30:50.759Z,0
2019-04-27T19:31:51.361Z,0
2019-04-27T19:32:51.937Z,0
2019-04-27T19:33:52.507Z,0
2019-04-27T19:34:53.073Z,0
2019-04-27T19:35:53.641Z,0
2019-04-27T19:36:54.208Z,0
2019-04-27T19:37:54.774Z,0
2019-04-27T19:38:55.345Z,0
2019-04-27T19:39:55.911Z,0
2019-04-27T19:40:56.479Z,0
2019-04-27T19:42:01.397Z,0
2019-04-27T19:42:58.873Z,0
2019-04-27T19:43:59.935Z,0
2019-04-27T19:45:00.472Z,0
2019-04-27T19:46:01.042Z,0
2019-04-27T19:47:01.609Z,0
2019-04-27T19:48:02.180Z,0
2019-04-27T19:49:02.759Z,0
2019-04-27T19:50:03.326Z,0
2019-04-27T19:51:03.904Z,0
2019-04-27T19:52:04.469Z,0
2019-04-27T19:53:05.048Z,0
2019-04-27T19:54:05.618Z,0
2019-04-27T19:55:06.191Z,0
2019-04-27T19:56:06.755Z,0
2019-04-27T19:57:09.138Z,0
2019-04-27T19:58:08.885Z,0
2019-04-27T19:59:09.452Z,0
2019-04-27T20:00:10.023Z,0
2019-04-27T20:01:14.225Z,0
2019-04-27T20:02:11.166Z,0
2019-04-27T20:03:11.736Z,0
2019-04-27T20:04:12.305Z,0
2019-04-27T20:05:12.870Z,0
2019-04-27T20:06:13.437Z,0
2019-04-27T20:07:14.005Z,0
2019-04-27T20:08:14.573Z,0
2019-04-27T20:09:15.157Z,0
2019-04-27T20:10:15.724Z,0
2019-04-27T20:11:16.291Z,0
2019-04-27T20:12:16.860Z,0
2019-04-27T20:13:17.428Z,0
2019-04-27T20:14:17.996Z,0
2019-04-27T20:15:18.563Z,0
2019-04-27T20:16:20.729Z,0
2019-04-27T20:17:20.526Z,0
2019-04-27T20:18:20.918Z,0
2019-04-27T20:19:21.571Z,0
2019-04-27T20:20:22.159Z,0
2019-04-27T20:21:22.726Z,0
2019-04-27T20:22:24.411Z,0
2019-04-27T20:23:24.858Z,0
2019-04-27T20:24:25.425Z,0
2019-04-27T20:25:25.991Z,0
2019-04-27T20:26:26.563Z,0
2019-04-27T20:27:27.125Z,0
2019-04-27T20:28:27.691Z,0
2019-04-27T20:29:28.257Z,0
2019-04-27T20:30:28.838Z,0
2019-04-27T20:31:30.639Z,0
2019-04-27T20:32:31.415Z,0
2019-04-27T20:33:31.542Z,0
2019-04-27T20:34:32.111Z,0
2019-04-27T20:35:32.680Z,0
2019-04-27T20:36:33.248Z,0
2019-04-27T20:37:33.814Z,0
2019-04-27T20:38:34.384Z,0
2019-04-27T20:39:34.950Z,0
2019-04-27T20:40:35.529Z,0
2019-04-27T20:41:36.126Z,0
2019-04-27T20:42:36.703Z,0
2019-04-27T20:43:37.285Z,0
2019-04-27T20:44:37.849Z,0
2019-04-27T20:45:38.417Z,0
2019-04-27T20:46:38.985Z,0
2019-04-27T20:47:39.563Z,0
2019-04-27T20:48:41.342Z,0
2019-04-27T20:49:41.703Z,0
2019-04-27T20:50:42.271Z,0
2019-04-27T20:51:43.869Z,0
2019-04-27T20:52:44.402Z,0
2019-04-27T20:53:44.973Z,0
2019-04-27T20:54:45.538Z,0
2019-04-27T20:55:46.106Z,0
2019-04-27T20:56:46.674Z,0
2019-04-27T20:57:58.776Z,0
2019-04-27T20:58:48.804Z,0
2019-04-27T20:59:50.506Z,0
2019-04-27T21:00:51.761Z,0
2019-04-27T21:01:52.343Z,0
2019-04-27T21:02:52.912Z,0
2019-04-27T21:03:53.481Z,0
2019-04-27T21:04:54.060Z,0
2019-04-27T21:05:54.630Z,0
2019-04-27T21:06:55.195Z,0
2019-04-27T21:07:55.762Z,0
2019-04-27T21:08:56.350Z,0
2019-04-27T21:09:56.917Z,0
2019-04-27T21:10:57.486Z,0
2019-04-27T21:11:58.053Z,0
2019-04-27T21:12:58.622Z,0
2019-04-27T21:14:00.935Z,0
2019-04-27T21:15:00.753Z,0
2019-04-27T21:16:02.231Z,0
2019-04-27T21:17:02.849Z,0
2019-04-27T21:18:03.421Z,0
2019-04-27T21:19:05.102Z,0
2019-04-27T21:20:05.545Z,0
2019-04-27T21:21:06.113Z,0
2019-04-27T21:22:06.700Z,0
2019-04-27T21:23:07.248Z,0
2019-04-27T21:24:07.817Z,0
2019-04-27T21:25:08.396Z,0
2019-04-27T21:26:08.966Z,0
2019-04-27T21:27:12.833Z,0
2019-04-27T21:28:17.961Z,0
2019-04-27T21:29:12.657Z,0
2019-04-27T21:30:13.229Z,0
2019-04-27T21:31:13.827Z,0
2019-04-27T21:32:14.369Z,0
2019-04-27T21:33:14.950Z,0
2019-04-27T21:34:15.516Z,0
2019-04-27T21:35:16.083Z,0
2019-04-27T21:36:16.649Z,0
2019-04-27T21:37:17.272Z,0
2019-04-27T21:38:17.842Z,0
2019-04-27T21:39:18.424Z,0
2019-04-27T21:40:21.084Z,0
2019-04-27T21:41:20.922Z,0
2019-04-27T21:42:22.115Z,0
2019-04-27T21:43:22.682Z,0
2019-04-27T21:44:23.253Z,0
2019-04-27T21:45:23.821Z,0
2019-04-27T21:46:24.388Z,0
2019-04-27T21:47:24.968Z,0
2019-04-27T21:48:25.537Z,0
2019-04-27T21:49:26.112Z,0
2019-04-27T21:50:26.679Z,0
2019-04-27T21:51:27.257Z,0
2019-04-27T21:52:27.830Z,0
2019-04-27T21:53:28.397Z,0
2019-04-27T21:54:30.795Z,0
2019-04-27T21:55:30.934Z,0
2019-04-27T21:56:31.467Z,0
2019-04-27T21:57:32.047Z,0
2019-04-27T21:58:33.348Z,0
2019-04-27T21:59:33.984Z,0
2019-04-27T22:00:34.571Z,0
2019-04-27T22:01:35.138Z,0
2019-04-27T22:02:35.707Z,0
2019-04-27T22:03:36.274Z,0
2019-04-27T22:04:36.842Z,0
2019-04-27T22:05:37.419Z,0
2019-04-27T22:06:37.987Z,0
2019-04-27T22:07:38.565Z,0
2019-04-27T22:08:40.898Z,0
2019-04-27T22:09:43.086Z,0
2019-04-27T22:10:42.257Z,0
2019-04-27T22:11:42.835Z,0
2019-04-27T22:12:43.402Z,0
2019-04-27T22:13:43.971Z,0
2019-04-27T22:14:44.538Z,0
2019-04-27T22:15:45.106Z,0
2019-04-27T22:16:45.673Z,0
2019-04-27T22:17:46.250Z,0
2019-04-27T22:18:46.818Z,0
2019-04-27T22:19:47.384Z,0
2019-04-27T22:20:47.951Z,0
2019-04-27T22:21:48.517Z,0
2019-04-27T22:22:49.096Z,0
2019-04-27T22:23:50.877Z,0
2019-04-27T22:24:51.388Z,0
2019-04-27T22:25:54.441Z,0
2019-04-27T22:26:53.450Z,0
2019-04-27T22:27:54.017Z,0
2019-04-27T22:28:54.586Z,0
2019-04-27T22:29:55.167Z,0
2019-04-27T22:30:55.734Z,0
2019-04-27T22:31:56.303Z,0
2019-04-27T22:32:56.871Z,0
2019-04-27T22:33:57.440Z,0
2019-04-27T22:34:58.018Z,0
2019-04-27T22:35:58.585Z,0
2019-04-27T22:37:00.938Z,0
2019-04-27T22:38:01.938Z,0
2019-04-27T22:39:02.276Z,0
2019-04-27T22:40:02.844Z,0
2019-04-27T22:41:03.427Z,0
2019-04-27T22:42:04.001Z,0
2019-04-27T22:43:04.570Z,0
2019-04-27T22:44:05.136Z,0
2019-04-27T22:45:05.706Z,0
2019-04-27T22:46:06.273Z,0
2019-04-27T22:47:06.847Z,0
2019-04-27T22:48:07.408Z,0
2019-04-27T22:49:07.975Z,0
2019-04-27T22:50:08.543Z,0
2019-04-27T22:51:09.110Z,0
2019-04-27T22:52:11.657Z,0
2019-04-27T22:53:11.238Z,0
2019-04-27T22:54:11.816Z,0
2019-04-27T22:55:12.382Z,0
2019-04-27T22:56:13.486Z,0
2019-04-27T22:57:13.522Z,0
2019-04-27T22:58:14.088Z,0
2019-04-27T22:59:14.657Z,0
2019-04-27T23:00:15.225Z,0
2019-04-27T23:01:15.793Z,0
2019-04-27T23:02:16.371Z,0
2019-04-27T23:03:16.940Z,0
2019-04-27T23:04:17.518Z,0
2019-04-27T23:05:18.084Z,0
2019-04-27T23:06:18.653Z,0
2019-04-27T23:07:21.143Z,0
2019-04-27T23:08:20.707Z,0
2019-04-27T23:09:21.876Z,0
2019-04-27T23:10:21.927Z,0
2019-04-27T23:11:22.494Z,0
2019-04-27T23:12:23.132Z,0
2019-04-27T23:13:23.624Z,0
2019-04-27T23:14:24.192Z,0
2019-04-27T23:15:24.759Z,0
2019-04-27T23:16:25.326Z,0
2019-04-27T23:17:25.906Z,0
2019-04-27T23:18:26.480Z,0
2019-04-27T23:19:27.053Z,0
2019-04-27T23:20:27.621Z,0
2019-04-27T23:21:28.186Z,0
2019-04-27T23:22:28.752Z,0
2019-04-27T23:23:30.969Z,0
2019-04-27T23:24:31.091Z,0
2019-04-27T23:25:31.453Z,0
2019-04-27T23:26:32.023Z,0
2019-04-27T23:27:32.601Z,0
2019-04-27T23:28:33.170Z,0
2019-04-27T23:29:33.744Z,0
2019-04-27T23:30:34.304Z,0
2019-04-27T23:31:34.870Z,0
2019-04-27T23:32:35.438Z,0
2019-04-27T23:33:36.007Z,0
2019-04-27T23:34:36.573Z,0
2019-04-27T23:35:37.141Z,0
2019-04-27T23:36:37.709Z,0
2019-04-27T23:37:38.276Z,0
2019-04-27T23:38:40.430Z,0
2019-04-27T23:39:40.416Z,0
2019-04-27T23:40:41.785Z,0
2019-04-27T23:41:42.348Z,0
2019-04-27T23:42:42.917Z,0
2019-04-27T23:43:43.491Z,0
2019-04-27T23:44:44.052Z,0
2019-04-27T23:45:44.622Z,0
2019-04-27T23:46:45.188Z,0
2019-04-27T23:47:45.756Z,0
2019-04-27T23:48:46.334Z,0
2019-04-27T23:49:46.902Z,0
2019-04-27T23:50:47.477Z,0
2019-04-27T23:51:48.038Z,0
2019-04-27T23:52:48.606Z,0
2019-04-27T23:53:49.174Z,0
2019-04-27T23:54:51.180Z,0
2019-04-27T23:55:51.306Z,0
2019-04-27T23:56:51.983Z,0
2019-04-27T23:57:52.475Z,0
2019-04-27T23:58:53.042Z,0
2019-04-27T23:59:53.609Z,0
